createdAt,value
2023-01-19T00:02:14.455Z,7.60
2023-01-19T00:04:42.917Z,7.54
2023-01-19T00:07:11.324Z,7.50
2023-01-19T00:09:40.017Z,7.46
2023-01-19T00:12:09.097Z,7.41
2023-01-19T00:14:50.665Z,7.40
2023-01-19T00:17:19.094Z,7.40
2023-01-19T00:19:51.491Z,7.39
2023-01-19T00:22:23.894Z,7.39
2023-01-19T00:24:52.412Z,7.38
2023-01-19T00:27:24.821Z,7.37
2023-01-19T00:30:01.163Z,7.37
2023-01-19T00:32:35.506Z,7.38
2023-01-19T00:35:12.600Z,7.39
2023-01-19T00:37:46.484Z,7.42
2023-01-19T00:40:42.363Z,7.44
2023-01-19T00:43:34.349Z,7.49
2023-01-19T00:46:24.667Z,7.55
2023-01-19T00:49:05.970Z,7.59
2023-01-19T00:52:11.766Z,7.62
2023-01-19T00:55:54.717Z,7.66
2023-01-19T01:00:04.451Z,7.70
2023-01-19T01:02:55.504Z,7.75
2023-01-19T01:05:55.220Z,7.77
2023-01-19T01:09:49.446Z,7.79
2023-01-19T01:13:22.371Z,7.79
2023-01-19T01:19:50.713Z,7.78
2023-01-19T01:22:38.310Z,7.78
2023-01-19T01:36:26.225Z,7.80
2023-01-19T01:37:16.369Z,7.80
2023-01-19T01:39:40.970Z,7.81
2023-01-19T01:42:31.468Z,7.82
2023-01-19T01:49:34.196Z,7.81
2023-01-19T01:53:07.691Z,7.75
2023-01-19T01:56:08.905Z,7.70
2023-01-19T01:58:54.181Z,7.67
2023-01-19T02:02:06.035Z,7.65
2023-01-19T02:05:11.131Z,7.63
2023-01-19T02:08:42.334Z,7.65
2023-01-19T02:12:18.854Z,7.65
2023-01-19T02:16:07.401Z,7.64
2023-01-19T02:19:17.106Z,7.64
2023-01-19T02:21:49.365Z,7.65
2023-01-19T02:24:19.298Z,7.65
2023-01-19T02:30:28.223Z,7.48
2023-01-19T02:33:26.137Z,7.40
2023-01-19T02:39:16.084Z,7.26
2023-01-19T02:41:53.638Z,7.22
2023-01-19T02:44:35.767Z,7.17
2023-01-19T02:47:28.324Z,7.15
2023-01-19T02:51:10.491Z,7.14
2023-01-19T02:54:30.410Z,7.15
2023-01-19T02:57:23.001Z,7.19
2023-01-19T02:59:58.728Z,7.23
2023-01-19T03:02:45.954Z,7.27
2023-01-19T03:05:39.993Z,7.31
2023-01-19T03:08:59.774Z,7.37
2023-01-19T03:20:08.181Z,7.54
2023-01-19T03:23:19.064Z,7.58
2023-01-19T03:25:30.527Z,7.48
2023-01-19T03:26:30.681Z,7.64
2023-01-19T03:30:20.076Z,7.69
2023-01-19T03:33:38.380Z,7.77
2023-01-19T03:36:52.256Z,7.84
2023-01-19T03:40:14.119Z,7.93
2023-01-19T03:43:02.950Z,8.00
2023-01-19T03:45:50.944Z,8.07
2023-01-19T03:48:30.409Z,8.12
2023-01-19T03:51:12.393Z,8.16
2023-01-19T03:53:44.783Z,8.21
2023-01-19T03:56:30.186Z,8.24
2023-01-19T03:59:42.502Z,8.27
2023-01-19T04:02:35.248Z,8.31
2023-01-19T04:05:11.896Z,8.36
2023-01-19T04:08:12.493Z,8.41
2023-01-19T04:11:12.555Z,8.46
2023-01-19T04:14:28.538Z,8.51
2023-01-19T04:24:07.547Z,8.63
2023-01-19T04:27:17.187Z,8.67
2023-01-19T04:30:06.263Z,8.71
2023-01-19T04:32:50.579Z,8.74
2023-01-19T04:39:07.227Z,8.90
2023-01-19T04:41:48.392Z,8.98
2023-01-19T04:44:25.223Z,9.03
2023-01-19T04:47:04.925Z,9.09
2023-01-19T04:49:47.201Z,9.18
2023-01-19T04:52:30.365Z,9.27
2023-01-19T04:55:32.668Z,9.33
2023-01-19T04:58:31.605Z,9.39
2023-01-19T05:01:43.977Z,9.46
2023-01-19T05:05:01.496Z,9.53
2023-01-19T05:07:40.843Z,9.59
2023-01-19T05:10:16.635Z,9.64
2023-01-19T05:13:02.544Z,9.68
2023-01-19T05:15:53.676Z,9.74
2023-01-19T05:18:54.767Z,9.78
2023-01-19T05:21:38.451Z,9.80
2023-01-19T05:24:30.446Z,9.82
2023-01-19T05:28:01.985Z,9.82
2023-01-19T05:31:28.325Z,9.80
2023-01-19T05:34:44.453Z,9.82
2023-01-19T05:38:53.931Z,9.85
2023-01-19T05:41:27.864Z,9.85
2023-01-19T05:44:09.539Z,9.86
2023-01-19T05:47:09.043Z,9.87
2023-01-19T05:49:59.332Z,9.88
2023-01-19T05:53:01.312Z,9.92
2023-01-19T05:55:42.087Z,9.95
2023-01-19T05:59:01.841Z,9.99
2023-01-19T06:04:28.545Z,10.06
2023-01-19T06:04:54.692Z,10.04
2023-01-19T06:07:29.198Z,10.08
2023-01-19T06:10:21.491Z,10.10
2023-01-19T06:13:01.503Z,10.10
2023-01-19T06:15:55.528Z,10.10
2023-01-19T06:18:43.537Z,10.12
2023-01-19T06:21:37.962Z,10.12
2023-01-19T06:24:32.089Z,10.13
2023-01-19T06:27:47.446Z,10.15
2023-01-19T06:30:36.159Z,10.14
2023-01-19T06:33:39.464Z,10.16
2023-01-19T06:36:20.057Z,10.19
2023-01-19T06:39:09.790Z,10.21
2023-01-19T06:41:45.768Z,10.22
2023-01-19T06:44:16.647Z,10.22
2023-01-19T06:47:15.382Z,10.22
2023-01-19T06:50:03.071Z,10.22
2023-01-19T06:52:56.787Z,10.21
2023-01-19T06:55:35.881Z,10.21
2023-01-19T06:58:21.184Z,10.20
2023-01-19T07:01:15.994Z,10.19
2023-01-19T07:03:47.068Z,10.19
2023-01-19T07:06:26.755Z,10.19
2023-01-19T07:09:30.021Z,10.19
2023-01-19T07:12:02.769Z,10.19
2023-01-19T07:15:04.521Z,10.19
2023-01-19T07:17:39.077Z,10.19
2023-01-19T07:20:33.040Z,10.20
2023-01-19T07:23:16.859Z,10.21
2023-01-19T07:26:21.507Z,10.21
2023-01-19T07:29:31.444Z,10.23
2023-01-19T07:32:30.769Z,10.23
2023-01-19T07:35:03.892Z,10.24
2023-01-19T07:38:08.391Z,10.24
2023-01-19T07:41:15.881Z,10.24
2023-01-19T07:43:42.914Z,10.24
2023-01-19T07:46:23.212Z,10.24
2023-01-19T07:49:13.252Z,10.24
2023-01-19T07:53:40.019Z,10.24
2023-01-19T07:56:25.659Z,10.23
2023-01-19T07:59:51.259Z,10.21
2023-01-19T08:02:41.409Z,10.19
2023-01-19T08:05:23.602Z,10.17
2023-01-19T08:08:00.718Z,10.15
2023-01-19T08:10:37.226Z,10.14
2023-01-19T08:13:11.008Z,10.11
2023-01-19T08:15:54.635Z,10.07
2023-01-19T08:18:46.385Z,10.04
2023-01-19T08:21:19.249Z,10.00
2023-01-19T08:24:00.064Z,9.97
2023-01-19T08:26:44.555Z,9.95
2023-01-19T08:29:19.737Z,9.96
2023-01-19T08:31:59.758Z,9.97
2023-01-19T08:34:33.219Z,10.00
2023-01-19T08:37:06.167Z,10.02
2023-01-19T08:39:39.942Z,10.02
2023-01-19T08:42:11.540Z,10.04
2023-01-19T08:44:57.190Z,10.07
2023-01-19T08:47:51.123Z,10.08
2023-01-19T08:50:34.633Z,10.08
2023-01-19T08:53:41.038Z,10.07
2023-01-19T08:56:14.045Z,10.05
2023-01-19T08:58:46.689Z,10.04
2023-01-19T09:01:20.761Z,10.01
2023-01-19T09:06:52.548Z,9.94
2023-01-19T09:09:31.649Z,9.90
2023-01-19T09:12:05.757Z,9.88
2023-01-19T09:14:40.284Z,9.85
2023-01-19T09:17:21.224Z,9.83
2023-01-19T09:19:53.802Z,9.82
2023-01-19T09:22:28.393Z,9.81
2023-01-19T09:25:08.185Z,9.82
2023-01-19T09:27:59.835Z,9.82
2023-01-19T09:30:30.971Z,9.81
2023-01-19T09:33:25.588Z,9.80
2023-01-19T09:35:57.069Z,9.83
2023-01-19T09:38:27.144Z,9.89
2023-01-19T09:40:57.295Z,9.94
2023-01-19T09:43:54.757Z,9.99
2023-01-19T09:46:35.668Z,10.02
2023-01-19T09:49:20.430Z,10.04
2023-01-19T09:52:16.337Z,10.00
2023-01-19T09:54:56.371Z,9.98
2023-01-19T09:57:38.076Z,10.03
2023-01-19T10:00:18.500Z,10.12
2023-01-19T10:03:23.926Z,10.22
2023-01-19T10:06:05.256Z,10.29
2023-01-19T10:08:41.182Z,10.38
2023-01-19T10:11:51.808Z,10.51
2023-01-19T10:14:39.084Z,10.67
2023-01-19T10:17:41.334Z,10.77
2023-01-19T10:20:27.822Z,10.83
2023-01-19T10:23:05.993Z,10.88
2023-01-19T10:25:37.055Z,10.89
2023-01-19T10:28:05.748Z,10.89
2023-01-19T10:30:38.124Z,10.91
2023-01-19T10:33:14.063Z,10.94
2023-01-19T10:35:43.146Z,10.98
2023-01-19T10:38:35.073Z,11.04
2023-01-19T10:41:17.525Z,11.05
2023-01-19T10:43:51.336Z,11.06
2023-01-19T10:46:35.684Z,11.03
2023-01-19T10:49:32.876Z,10.97
2023-01-19T10:52:11.656Z,10.88
2023-01-19T10:54:53.225Z,10.82
2023-01-19T10:57:45.391Z,10.76
2023-01-19T11:00:29.048Z,10.71
2023-01-19T11:03:04.061Z,10.69
2023-01-19T11:05:44.339Z,10.67
2023-01-19T11:08:40.603Z,10.65
2023-01-19T11:11:14.792Z,10.62
2023-01-19T11:14:19.451Z,10.57
2023-01-19T11:17:03.799Z,10.51
2023-01-19T11:19:35.317Z,10.48
2023-01-19T11:22:35.322Z,10.47
2023-01-19T11:25:30.829Z,10.46
2023-01-19T11:28:04.283Z,10.49
2023-01-19T11:30:56.373Z,10.51
2023-01-19T11:33:35.688Z,10.55
2023-01-19T11:36:18.280Z,10.61
2023-01-19T11:38:51.349Z,10.71
2023-01-19T11:41:32.299Z,10.85
2023-01-19T11:44:26.991Z,10.99
2023-01-19T11:47:07.200Z,11.12
2023-01-19T11:49:49.230Z,11.24
2023-01-19T11:52:43.088Z,11.37
2023-01-19T11:55:24.401Z,11.44
2023-01-19T11:57:59.498Z,11.51
2023-01-19T12:00:39.364Z,11.56
2023-01-19T12:03:25.375Z,11.60
2023-01-19T12:06:12.945Z,11.63
2023-01-19T12:08:52.502Z,11.61
2023-01-19T12:11:27.682Z,11.58
2023-01-19T12:14:02.538Z,11.58
2023-01-19T12:16:45.153Z,11.60
2023-01-19T12:19:25.891Z,11.72
2023-01-19T12:21:58.374Z,11.91
2023-01-19T12:24:45.101Z,12.09
2023-01-19T12:27:42.653Z,12.18
2023-01-19T12:30:28.725Z,12.21
2023-01-19T12:33:24.914Z,12.25
2023-01-19T12:36:04.211Z,12.28
2023-01-19T12:38:54.023Z,12.32
2023-01-19T12:41:26.455Z,12.35
2023-01-19T12:44:26.995Z,12.43
2023-01-19T12:47:26.768Z,12.49
2023-01-19T12:50:27.209Z,12.47
2023-01-19T12:54:04.142Z,12.39
2023-01-19T12:56:48.073Z,12.27
2023-01-19T13:00:20.995Z,12.23
2023-01-19T13:03:13.855Z,12.22
2023-01-19T13:06:30.669Z,12.18
2023-01-19T13:14:45.147Z,12.15
2023-01-19T13:16:28.256Z,12.04
2023-01-19T13:19:30.249Z,11.99
2023-01-19T13:23:29.605Z,11.94
2023-01-19T13:26:36.116Z,11.91
2023-01-19T13:29:35.823Z,11.91
2023-01-19T13:32:51.919Z,11.88
2023-01-19T13:35:55.424Z,11.80
2023-01-19T13:38:41.116Z,11.70
2023-01-19T13:45:04.685Z,11.52
2023-01-19T13:47:40.130Z,11.42
2023-01-19T13:50:37.060Z,11.36
2023-01-19T13:53:50.324Z,11.29
2023-01-19T13:56:52.425Z,11.26
2023-01-19T13:59:45.288Z,11.24
2023-01-19T14:03:30.075Z,11.19
2023-01-19T14:06:03.393Z,11.17
2023-01-19T14:08:46.791Z,11.16
2023-01-19T14:12:26.415Z,11.12
2023-01-19T14:18:25.818Z,11.04
2023-01-19T14:18:26.452Z,11.08
2023-01-19T14:21:22.248Z,11.00
2023-01-19T14:24:18.849Z,10.96
2023-01-19T14:27:44.276Z,10.94
2023-01-19T14:30:36.883Z,10.86
2023-01-19T14:33:49.324Z,10.76
2023-01-19T14:38:53.676Z,10.66
2023-01-19T14:43:46.908Z,10.52
2023-01-19T14:46:19.495Z,10.43
2023-01-19T14:49:02.919Z,10.28
2023-01-19T14:51:32.252Z,10.01
2023-01-19T14:54:32.875Z,9.74
2023-01-19T14:57:16.282Z,9.47
2023-01-19T15:00:04.787Z,9.27
2023-01-19T15:03:03.884Z,9.09
2023-01-19T15:05:43.453Z,8.94
2023-01-19T15:08:46.746Z,8.83
2023-01-19T15:11:53.684Z,8.73
2023-01-19T15:14:48.856Z,8.64
2023-01-19T15:18:25.425Z,8.57
2023-01-19T15:21:16.447Z,8.52
2023-01-19T15:24:05.333Z,8.50
2023-01-19T15:26:36.193Z,8.51
2023-01-19T15:29:42.039Z,8.50
2023-01-19T15:32:54.076Z,8.46
2023-01-19T15:35:48.413Z,8.40
2023-01-19T15:38:45.393Z,8.32
2023-01-19T15:41:34.341Z,8.20
2023-01-19T15:44:14.126Z,8.08
2023-01-19T15:46:42.539Z,7.96
2023-01-19T15:49:11.007Z,7.86
2023-01-19T15:52:08.280Z,7.72
2023-01-19T15:54:47.019Z,7.58
2023-01-19T15:57:18.569Z,7.48
2023-01-19T16:00:08.258Z,7.39
2023-01-19T16:02:51.076Z,7.32
2023-01-19T16:05:42.872Z,7.25
2023-01-19T16:08:16.962Z,7.13
2023-01-19T16:11:03.419Z,6.99
2023-01-19T16:13:44.496Z,6.86
2023-01-19T16:16:29.176Z,6.73
2023-01-19T16:19:05.434Z,6.64
2023-01-19T16:21:33.939Z,6.57
2023-01-19T16:24:11.949Z,6.52
2023-01-19T16:26:59.677Z,6.51
2023-01-19T16:30:44.755Z,6.49
2023-01-19T16:33:52.046Z,6.42
2023-01-19T16:37:04.581Z,6.31
2023-01-19T16:39:38.231Z,6.26
2023-01-19T16:42:30.681Z,6.21
2023-01-19T16:45:22.179Z,6.15
2023-01-19T16:48:06.769Z,6.11
2023-01-19T16:50:53.562Z,6.09
2023-01-19T16:53:58.636Z,6.06
2023-01-19T16:56:36.771Z,5.94
2023-01-19T16:59:58.051Z,5.84
2023-01-19T17:02:41.095Z,5.72
2023-01-19T17:05:54.050Z,5.62
2023-01-19T17:08:50.703Z,5.53
2023-01-19T17:11:37.840Z,5.49
2023-01-19T17:23:11.954Z,5.21
2023-01-19T17:26:25.939Z,5.17
2023-01-19T17:29:06.664Z,5.12
2023-01-19T17:31:46.992Z,5.11
2023-01-19T17:34:47.030Z,5.12
2023-01-19T17:37:22.923Z,5.12
2023-01-19T17:40:05.475Z,5.14
2023-01-19T17:45:29.739Z,5.15
2023-01-19T17:48:14.884Z,5.10
2023-01-19T17:50:54.018Z,5.00
2023-01-19T17:53:26.427Z,4.91
2023-01-19T17:56:05.524Z,4.86
2023-01-19T18:02:10.688Z,4.66
2023-01-19T18:04:50.061Z,4.60
2023-01-19T18:07:21.356Z,4.56
2023-01-19T18:09:52.200Z,4.53
2023-01-19T18:12:25.146Z,4.52
2023-01-19T18:15:11.737Z,4.51
2023-01-19T18:17:53.429Z,4.52
2023-01-19T18:21:00.408Z,4.52
2023-01-19T18:23:45.223Z,4.52
2023-01-19T18:26:32.698Z,4.50
2023-01-19T18:29:07.391Z,4.48
2023-01-19T18:32:01.735Z,4.50
2023-01-19T18:35:24.714Z,4.50
2023-01-19T18:37:32.272Z,4.51
2023-01-19T18:43:31.747Z,4.45
2023-01-19T18:43:44.534Z,4.48
2023-01-19T18:46:10.718Z,4.42
2023-01-19T18:48:55.567Z,4.40
2023-01-19T18:51:36.349Z,4.39
2023-01-19T18:54:18.383Z,4.37
2023-01-19T19:06:56.951Z,4.26
2023-01-19T19:09:34.315Z,4.24
2023-01-19T19:12:09.771Z,4.24
2023-01-19T19:14:40.737Z,4.23
2023-01-19T19:17:22.039Z,4.23
2023-01-19T19:20:31.523Z,4.23
2023-01-19T19:23:23.034Z,4.17
2023-01-19T19:27:00.831Z,4.13
2023-01-19T19:29:49.049Z,4.13
2023-01-19T19:32:30.809Z,4.14
2023-01-19T19:35:01.784Z,4.15
2023-01-19T19:40:33.753Z,4.14
2023-01-19T19:43:11.871Z,4.12
2023-01-19T19:52:59.196Z,4.10
2023-01-19T19:53:17.158Z,4.04
2023-01-19T19:56:37.245Z,3.94
2023-01-19T19:59:51.677Z,3.90
2023-01-19T20:02:25.587Z,3.88
2023-01-19T20:05:16.692Z,3.90
2023-01-19T20:10:55.968Z,3.96
2023-01-19T20:13:28.922Z,3.96
2023-01-19T20:16:54.421Z,3.98
2023-01-19T20:20:12.550Z,3.98
2023-01-19T20:22:56.633Z,3.92
2023-01-19T20:25:43.431Z,3.86
2023-01-19T20:28:13.160Z,3.81
2023-01-19T20:30:49.405Z,3.79
2023-01-19T20:34:17.265Z,3.77
2023-01-19T20:36:31.579Z,3.76
2023-01-19T20:39:36.097Z,3.75
2023-01-19T20:42:48.049Z,3.72
2023-01-19T20:45:34.029Z,3.70
2023-01-19T20:48:08.751Z,3.70
2023-01-19T20:51:12.297Z,3.72
2023-01-19T20:54:27.536Z,3.73
2023-01-19T20:57:15.020Z,3.73
2023-01-19T21:00:55.702Z,3.70
2023-01-19T21:07:59.176Z,3.57
2023-01-19T21:11:48.480Z,3.49
2023-01-19T21:14:42.032Z,3.37
2023-01-19T21:17:53.638Z,3.27
2023-01-19T21:20:38.919Z,3.15
2023-01-19T21:23:33.576Z,3.04
2023-01-19T21:26:53.668Z,2.95
2023-01-19T21:29:55.041Z,2.87
2023-01-19T21:32:27.297Z,2.80
2023-01-19T21:35:16.742Z,2.74
2023-01-19T21:39:17.489Z,2.71
2023-01-19T21:41:29.040Z,2.71
2023-01-19T21:44:33.892Z,2.79
2023-01-19T21:47:09.385Z,2.86
2023-01-19T21:49:59.899Z,2.92
2023-01-19T21:53:37.146Z,3.00
2023-01-19T21:55:53.953Z,3.06
2023-01-19T21:59:26.039Z,3.11
2023-01-19T22:01:57.946Z,3.14
2023-01-19T22:04:28.749Z,3.17
2023-01-19T22:07:11.113Z,3.20
2023-01-19T22:10:13.391Z,3.22
2023-01-19T22:12:44.131Z,3.24
2023-01-19T22:15:25.810Z,3.26
2023-01-19T22:17:56.701Z,3.27
2023-01-19T22:20:48.334Z,3.29
2023-01-19T22:23:20.292Z,3.29
2023-01-19T22:26:07.394Z,3.27
2023-01-19T22:28:44.581Z,3.23
2023-01-19T22:31:20.531Z,3.19
2023-01-19T22:34:04.090Z,3.15
2023-01-19T22:36:35.005Z,3.12
2023-01-19T22:39:07.852Z,3.11
2023-01-19T22:41:43.106Z,3.08
2023-01-19T22:44:24.419Z,3.09
2023-01-19T22:47:02.969Z,3.12
2023-01-19T22:49:36.391Z,3.15
2023-01-19T22:52:08.885Z,3.17
2023-01-19T22:54:44.607Z,3.16
2023-01-19T22:57:12.916Z,3.19
2023-01-19T22:59:46.320Z,3.18
2023-01-19T23:02:17.622Z,3.19
2023-01-19T23:04:49.824Z,3.20
2023-01-19T23:07:21.942Z,3.19
2023-01-19T23:09:50.390Z,3.19
2023-01-19T23:12:18.808Z,3.20
2023-01-19T23:14:49.239Z,3.21
2023-01-19T23:17:19.927Z,3.21
2023-01-19T23:19:51.581Z,3.21
2023-01-19T23:22:21.591Z,3.23
2023-01-19T23:24:49.819Z,3.24
2023-01-19T23:27:20.203Z,3.23
2023-01-19T23:29:50.566Z,3.24
2023-01-19T23:32:23.950Z,3.24
2023-01-19T23:34:52.284Z,3.23
2023-01-19T23:37:22.528Z,3.23
2023-01-19T23:39:53.021Z,3.23
2023-01-19T23:42:21.437Z,3.24
2023-01-19T23:44:52.977Z,3.26
2023-01-19T23:47:23.798Z,3.25
2023-01-19T23:49:52.093Z,3.22
2023-01-19T23:52:20.371Z,3.14
2023-01-19T23:54:48.684Z,3.00
2023-01-19T23:57:17.216Z,2.89
2023-01-19T23:59:45.459Z,2.85
